Star Dieppe — LEQZ3 — position and weather

sailwx.info

Track history (hours):
 
Tides and Currents Weather Stations Pressure Air Temp Water Temp Dewpoint Dewpoint Depression Visibility Wind Speed Wind Dir Waves Ship Positions

Star Dieppe

Last reported at 2014-Jul-30 06:00 UTC. Time now 2014-Jul-31 15:40 UTC.
Position N 44°42' E 157°48'.

Length 182 m; draft 8.1 m.

Type: Cargo ship. MMSI: 257439000.

Wind from 290 at 15 knots

Waves 2.0 meters (7 feet), 8 second period

Barometer 1014.0 mb
Air temperature 13.0 ° C
Visibility: greater than 10.8 NM
Dewpoint 9.0 ° C
Water temperature 11.0 ° C

Date/timePositionNaut miles runAvg speedWind from/ knotsBaromVisibWave heightAir tempDewpointWater temp
2014-Jul-30 06:00N 44°42' E 157°48'6711.2 290 / 151014.010.8 2.013.0 9.011.0
2014-Jul-30 00:00N 44°12' E 156°24'14912.4 290 / 201015.9 5.4 2.014.013.015.0
2014-Jul-29 12:00N 43°00' E 153°24'26210.9 340 / 131061.110.8 16.014.016.0
2014-Jul-28 12:00N 41°36' E 147°48'37112.4 340 / 251008.4 5.4 15.013.019.0
2014-Jul-27 06:00N 41°06' E 139°36'28211.8 320 / 321002.0 6.024.021.023.0
2014-Jul-26 06:00N 38°06' E 134°54'23212.9 210 / 171008.0 2.028.025.028.0
2014-Jul-25 12:00N 35°48' E 131°00'6112.1 200 / 191011.710.8 0.526.025.025.0
2014-Jul-25 07:00N 35°12' E 130°00'9513.6 180 / 91011.0 1.033.029.030.0
2014-Jul-25 00:00N 34°12' E 128°30'34512.5 160 / 91010.9 5.4 1.027.026.024.0
2014-Jul-23 20:27N 31°05' E 122°45'1011.0
2014-Jul-23 19:31N 31°05' E 122°33'10 9.9
2014-Jul-23 18:33N 31°05' E 122°22'2913.5
2014-Jul-23 16:25N 31°16' E 121°51'1011.9
2014-Jul-23 15:33N 31°21' E 121°40'1010.6
2014-Jul-23 14:33N 31°26' E 121°29'10 9.5
2014-Jul-23 13:33N 31°32' E 121°21'1512.1
2014-Jul-23 12:16N 31°43' E 121°08'811.6
2014-Jul-23 11:33N 31°47' E 120°59'1110.8
2014-Jul-23 10:33N 31°56' E 120°52'1111.1
2014-Jul-23 09:33N 31°60' E 120°40'1 0.8
2014-Jul-23 08:33N 31°59' E 120°39'0 0.0
2014-Jul-23 07:29N 31°59' E 120°39'0 0.0
2014-Jul-23 06:32N 31°59' E 120°39'0 0.0
2014-Jul-23 05:30N 31°59' E 120°39'0 0.0
2014-Jul-23 04:33N 31°59' E 120°39'0 0.0
2014-Jul-23 03:32N 31°59' E 120°39'0 0.0
2014-Jul-23 02:28N 31°59' E 120°39'0 0.0
2014-Jul-23 01:33N 31°59' E 120°39'0 0.0
2014-Jul-23 00:29N 31°59' E 120°39'0 0.0
2014-Jul-22 23:28N 31°59' E 120°39'0 0.0
2014-Jul-22 22:31N 31°59' E 120°39'0 0.0
2014-Jul-22 21:33N 31°59' E 120°39'0 0.0
2014-Jul-22 20:29N 31°59' E 120°39'0 0.0
2014-Jul-22 19:31N 31°59' E 120°39'0 0.0
2014-Jul-22 18:27N 31°59' E 120°39'0 0.0
2014-Jul-22 17:33N 31°59' E 120°39'0 0.0
2014-Jul-22 16:32N 31°59' E 120°39'0 0.0
2014-Jul-22 15:31N 31°59' E 120°39'0 0.0
2014-Jul-22 14:31N 31°59' E 120°39'0 0.0
2014-Jul-22 13:26N 31°59' E 120°39'0 0.0
2014-Jul-22 12:31N 31°59' E 120°39'0 0.0
2014-Jul-22 11:21N 31°59' E 120°39'0 0.0
2014-Jul-22 10:33N 31°59' E 120°39'0 0.0
2014-Jul-22 09:32N 31°59' E 120°39'0 0.0
2014-Jul-22 08:31N 31°59' E 120°39'0 0.0
2014-Jul-22 07:15N 31°59' E 120°39'0 0.0
2014-Jul-22 06:23N 31°59' E 120°39'0 0.0
2014-Jul-22 05:31N 31°59' E 120°39'0 0.0
2014-Jul-22 04:33N 31°59' E 120°39'3 3.1
2014-Jul-22 03:33N 32°01' E 120°36'1010.2
2014-Jul-22 02:33N 32°01' E 120°24'1312.9
2014-Jul-22 01:33N 31°56' E 120°10'1313.2
2014-Jul-22 00:33N 32°02' E 119°57'1414.5
2014-Jul-21 23:33N 32°16' E 119°52'8 8.4
2014-Jul-21 22:33N 32°16' E 119°42'1 0.6
2014-Jul-21 21:25N 32°16' E 119°42'0 0.0
2014-Jul-21 17:10N 32°16' E 119°42'0 0.0
2014-Jul-21 00:31N 32°16' E 119°42'0 0.0
2014-Jul-20 23:30N 32°16' E 119°42'0 0.0
2014-Jul-20 22:23N 32°16' E 119°42'0 0.0
2014-Jul-20 21:28N 32°16' E 119°42'0 0.0
2014-Jul-20 20:33N 32°16' E 119°42'0 0.1
2014-Jul-20 16:04N 32°16' E 119°42'  
Track history (hours):
 
Tides and Currents Weather Stations Pressure Air Temp Water Temp Dewpoint Dewpoint Depression Visibility Wind Speed Wind Dir Waves Ship Positions

Star Dieppe

Last reported at 2014-Jul-30 06:00 UTC. Time now 2014-Jul-31 15:40 UTC.
Position N 44°42' E 157°48'.

Length 182 m; draft 8.1 m.

Type: Cargo ship. MMSI: 257439000.

Wind from 290 at 15 knots

Waves 2.0 meters (7 feet), 8 second period

Barometer 1014.0 mb
Air temperature 13.0 ° C
Visibility: greater than 10.8 NM
Dewpoint 9.0 ° C
Water temperature 11.0 ° C

Date/timePositionNaut miles runAvg speedWind from/ knotsBaromVisibWave heightAir tempDewpointWater temp
2014-Jul-30 06:00N 44°42' E 157°48'6711.2 290 / 151014.010.8 2.013.0 9.011.0
2014-Jul-30 00:00N 44°12' E 156°24'14912.4 290 / 201015.9 5.4 2.014.013.015.0
2014-Jul-29 12:00N 43°00' E 153°24'26210.9 340 / 131061.110.8 16.014.016.0
2014-Jul-28 12:00N 41°36' E 147°48'37112.4 340 / 251008.4 5.4 15.013.019.0
2014-Jul-27 06:00N 41°06' E 139°36'28211.8 320 / 321002.0 6.024.021.023.0
2014-Jul-26 06:00N 38°06' E 134°54'23212.9 210 / 171008.0 2.028.025.028.0
2014-Jul-25 12:00N 35°48' E 131°00'6112.1 200 / 191011.710.8 0.526.025.025.0
2014-Jul-25 07:00N 35°12' E 130°00'9513.6 180 / 91011.0 1.033.029.030.0
2014-Jul-25 00:00N 34°12' E 128°30'34512.5 160 / 91010.9 5.4 1.027.026.024.0
2014-Jul-23 20:27N 31°05' E 122°45'1011.0
2014-Jul-23 19:31N 31°05' E 122°33'10 9.9
2014-Jul-23 18:33N 31°05' E 122°22'2913.5
2014-Jul-23 16:25N 31°16' E 121°51'1011.9
2014-Jul-23 15:33N 31°21' E 121°40'1010.6
2014-Jul-23 14:33N 31°26' E 121°29'10 9.5
2014-Jul-23 13:33N 31°32' E 121°21'1512.1
2014-Jul-23 12:16N 31°43' E 121°08'811.6
2014-Jul-23 11:33N 31°47' E 120°59'1110.8
2014-Jul-23 10:33N 31°56' E 120°52'1111.1
2014-Jul-23 09:33N 31°60' E 120°40'1 0.8
2014-Jul-23 08:33N 31°59' E 120°39'0 0.0
2014-Jul-23 07:29N 31°59' E 120°39'0 0.0
2014-Jul-23 06:32N 31°59' E 120°39'0 0.0
2014-Jul-23 05:30N 31°59' E 120°39'0 0.0
2014-Jul-23 04:33N 31°59' E 120°39'0 0.0
2014-Jul-23 03:32N 31°59' E 120°39'0 0.0
2014-Jul-23 02:28N 31°59' E 120°39'0 0.0
2014-Jul-23 01:33N 31°59' E 120°39'0 0.0
2014-Jul-23 00:29N 31°59' E 120°39'0 0.0
2014-Jul-22 23:28N 31°59' E 120°39'0 0.0
2014-Jul-22 22:31N 31°59' E 120°39'0 0.0
2014-Jul-22 21:33N 31°59' E 120°39'0 0.0
2014-Jul-22 20:29N 31°59' E 120°39'0 0.0
2014-Jul-22 19:31N 31°59' E 120°39'0 0.0
2014-Jul-22 18:27N 31°59' E 120°39'0 0.0
2014-Jul-22 17:33N 31°59' E 120°39'0 0.0
2014-Jul-22 16:32N 31°59' E 120°39'0 0.0
2014-Jul-22 15:31N 31°59' E 120°39'0 0.0
2014-Jul-22 14:31N 31°59' E 120°39'0 0.0
2014-Jul-22 13:26N 31°59' E 120°39'0 0.0
2014-Jul-22 12:31N 31°59' E 120°39'0 0.0
2014-Jul-22 11:21N 31°59' E 120°39'0 0.0
2014-Jul-22 10:33N 31°59' E 120°39'0 0.0
2014-Jul-22 09:32N 31°59' E 120°39'0 0.0
2014-Jul-22 08:31N 31°59' E 120°39'0 0.0
2014-Jul-22 07:15N 31°59' E 120°39'0 0.0
2014-Jul-22 06:23N 31°59' E 120°39'0 0.0
2014-Jul-22 05:31N 31°59' E 120°39'0 0.0
2014-Jul-22 04:33N 31°59' E 120°39'3 3.1
2014-Jul-22 03:33N 32°01' E 120°36'1010.2
2014-Jul-22 02:33N 32°01' E 120°24'1312.9
2014-Jul-22 01:33N 31°56' E 120°10'1313.2
2014-Jul-22 00:33N 32°02' E 119°57'1414.5
2014-Jul-21 23:33N 32°16' E 119°52'8 8.4
2014-Jul-21 22:33N 32°16' E 119°42'1 0.6
2014-Jul-21 21:25N 32°16' E 119°42'0 0.0
2014-Jul-21 17:10N 32°16' E 119°42'0 0.0
2014-Jul-21 00:31N 32°16' E 119°42'0 0.0
2014-Jul-20 23:30N 32°16' E 119°42'0 0.0
2014-Jul-20 22:23N 32°16' E 119°42'0 0.0
2014-Jul-20 21:28N 32°16' E 119°42'0 0.0
2014-Jul-20 20:33N 32°16' E 119°42'0 0.1
2014-Jul-20 16:04N 32°16' E 119°42'  

Dump ship's entire track history